< < Back
Terminal Aerodrome Forecast


Current Version              Previous Versions:   1  2  3  4  5  6  7  8  9  

Terminal Aerodrome Forecast

030
FTUS42 KFFC 082333
TAFPDK
TAF
KPDK 082333Z 0900/0924 30012G20KT P6SM BKN070
     FM090400 29010G18KT P6SM BKN070
     FM091100 29010G20KT P6SM VCSH SCT025 BKN045 PROB30 0913/0918
      6SM -SHSN BKN025
     FM091800 29012G22KT P6SM BKN030 PROB30 0918/0923 6SM -SHSN
      BKN025
     FM092300 30012KT P6SM BKN030=



Latest METAR

030
SAUS70 KWBC 090100 RRC
MTRPDK
METAR KPDK 090053Z 30014G23KT 10SM FEW060 OVC085 06/M05 A2979 RMK AO2
SLP100 T00611050


USA.gov is the U.S. government's official web portal to all federal, state and local government web resources and services.